Weather History for Council Bluffs, IA

Change the Weather History Date:

Wednesday, March 14, 2012

  Actual Average Record
Temperature  
Mean Temperature 68 °F -  
Max Temperature 78 °F 44 °F 78 °F (2012)
Min Temperature 57 °F 27 °F 14 °F (1997)
Cooling Degree Days 2    
Growing Degree Days 18 (Base 50)    
Moisture  
Dew Point 54 °F    
Average Humidity 66    
Maximum Humidity 94    
Minimum Humidity 36    
Precipitation  
Precipitation 0.00 in - - ()
Sea Level Pressure  
Sea Level Pressure 29.80 in    
Wind  
Wind Speed 12 mph (SSW)    
Max Wind Speed 18 mph    
Max Gust Speed 26 mph    
Visibility 10 miles    
Events      
Averages and records for this station are not official NWS values.
T = Trace of Precipitation, MM = Missing Value Source: NWS Daily Summary

Daily Weather History Graph

Daily Weather History Graph

Search for Another Location

Airport:

Trip Planner

Search our weather history database for the weather conditions in past years. The results will help you decide how hot, cold, wet, or windy it might be!

Date:

Astronomy

Mar. 14, 2012 Rise Set
Actual Time 7:35 AM CDT 7:29 PM CDT
Civil Twilight 7:08 AM CDT 7:56 PM CDT
Nautical Twilight 6:36 AM CDT 8:28 PM CDT
Astronomical Twilight 6:03 AM CDT 9:01 PM CDT
Moon 2:09 AM CDT (3/14) 11:43 AM CDT (3/14)
Length of Visible Light 12h 48m
Length of Day
11h 53m
Waning Gibbous, 54% of the Moon is Illuminated
Mar 14
Waning Gibbous
Mar 14
Last Quarter
Mar 22
New
Mar 30
First Quarter
Apr 6
Full

Hourly Weather History & Observations

Time (CDT) Temp. Dew Point Humidity Pressure Visibility Wind Dir Wind Speed Gust Speed Precip Events Conditions
12:15 AM 60.8 °F 50.0 °F 68% 29.79 in 10.0 mi SSE 11.5 mph - N/A   Clear
12:35 AM 59.0 °F 50.0 °F 72% 29.79 in 10.0 mi South 11.5 mph - N/A   Clear
12:55 AM 59.0 °F 50.0 °F 72% 29.78 in 10.0 mi South 11.5 mph - N/A   Clear
1:15 AM 60.8 °F 50.0 °F 68% 29.78 in 10.0 mi South 13.8 mph - N/A   Partly Cloudy
1:35 AM 64.4 °F 50.0 °F 59% 29.77 in 10.0 mi SSW 18.4 mph 26.5 mph N/A   Scattered Clouds
1:55 AM 62.6 °F 50.0 °F 63% 29.78 in 10.0 mi SSW 15.0 mph 20.7 mph N/A   Clear
2:15 AM 62.6 °F 50.0 °F 63% 29.77 in 10.0 mi SSW 15.0 mph - N/A   Clear
2:35 AM 60.8 °F 50.0 °F 68% 29.77 in 10.0 mi SSW 15.0 mph - N/A   Clear
2:55 AM 60.8 °F 50.0 °F 68% 29.77 in 10.0 mi South 15.0 mph 24.2 mph N/A   Clear
3:15 AM 60.8 °F 50.0 °F 68% 29.76 in 10.0 mi SSW 16.1 mph 23.0 mph N/A   Clear
3:35 AM 60.8 °F 51.8 °F 72% 29.76 in 10.0 mi SSW 13.8 mph 20.7 mph N/A   Clear
3:55 AM 60.8 °F 51.8 °F 72% 29.75 in 10.0 mi SSW 15.0 mph - N/A   Clear
4:15 AM 60.8 °F 51.8 °F 72% 29.75 in 10.0 mi SSW 13.8 mph 20.7 mph N/A   Clear
4:35 AM 60.8 °F 53.6 °F 77% 29.75 in 10.0 mi SSW 13.8 mph - N/A   Clear
4:55 AM 59.0 °F 53.6 °F 82% 29.76 in 10.0 mi South 12.7 mph - N/A   Clear
5:15 AM 59.0 °F 53.6 °F 82% 29.76 in 10.0 mi South 13.8 mph - N/A   Clear
5:35 AM 59.0 °F 53.6 °F 82% 29.76 in 10.0 mi South 13.8 mph - N/A   Clear
5:55 AM 59.0 °F 53.6 °F 82% 29.77 in 10.0 mi South 13.8 mph - N/A   Clear
6:15 AM 59.0 °F 55.4 °F 88% 29.77 in 10.0 mi South 12.7 mph - N/A   Clear
6:35 AM 59.0 °F 55.4 °F 88% 29.78 in 10.0 mi South 10.4 mph - N/A   Clear
6:55 AM 57.2 °F 55.4 °F 94% 29.78 in 10.0 mi South 9.2 mph - N/A   Clear
7:15 AM 57.2 °F 55.4 °F 94% 29.79 in 10.0 mi South 9.2 mph - N/A   Partly Cloudy
7:35 AM 59.0 °F 55.4 °F 88% 29.79 in 10.0 mi South 12.7 mph - N/A   Mostly Cloudy
7:55 AM 59.0 °F 57.2 °F 94% 29.80 in 9.0 mi South 8.1 mph - N/A   Overcast
8:15 AM 59.0 °F 57.2 °F 94% 29.80 in 9.0 mi South 11.5 mph - N/A   Overcast
8:35 AM 60.8 °F 57.2 °F 88% 29.81 in 9.0 mi SSW 11.5 mph - N/A   Overcast
8:55 AM 62.6 °F 59.0 °F 88% 29.81 in 9.0 mi South 11.5 mph - N/A   Overcast
9:15 AM 62.6 °F 59.0 °F 88% 29.81 in 10.0 mi SSW 13.8 mph - N/A   Overcast
9:35 AM 62.6 °F 59.0 °F 88% 29.82 in 9.0 mi South 11.5 mph - N/A   Overcast
9:55 AM 62.6 °F 59.0 °F 88% 29.82 in 10.0 mi SSW 10.4 mph - N/A   Overcast
10:15 AM 64.4 °F 59.0 °F 83% 29.82 in 10.0 mi SSW 13.8 mph 19.6 mph N/A   Overcast
10:35 AM 64.4 °F 57.2 °F 77% 29.82 in 9.0 mi SSW 12.7 mph 18.4 mph N/A   Overcast
10:55 AM 64.4 °F 57.2 °F 77% 29.82 in 10.0 mi SW 12.7 mph 19.6 mph N/A   Overcast
11:15 AM 64.4 °F 57.2 °F 77% 29.83 in 10.0 mi SW 11.5 mph - N/A   Mostly Cloudy
11:35 AM 68.0 °F 57.2 °F 68% 29.83 in 10.0 mi SSW 9.2 mph - N/A   Overcast
11:55 AM 68.0 °F 57.2 °F 68% 29.83 in 10.0 mi WSW 8.1 mph - N/A   Scattered Clouds
12:15 PM 69.8 °F 57.2 °F 64% 29.83 in 10.0 mi WSW 8.1 mph - N/A   Mostly Cloudy
12:35 PM 69.8 °F 57.2 °F 64% 29.82 in 10.0 mi SW 10.4 mph - N/A   Mostly Cloudy
12:55 PM 69.8 °F 55.4 °F 60% 29.82 in 10.0 mi SSW 8.1 mph 13.8 mph N/A   Partly Cloudy
1:15 PM 71.6 °F 55.4 °F 57% 29.82 in 10.0 mi SSW 9.2 mph - N/A   Clear
1:35 PM 73.4 °F 55.4 °F 53% 29.81 in 10.0 mi SW 10.4 mph - N/A   Clear
1:55 PM 73.4 °F 55.4 °F 53% 29.81 in 10.0 mi SW 6.9 mph 15.0 mph N/A   Clear
2:15 PM 73.4 °F 55.4 °F 53% 29.81 in 10.0 mi SW 12.7 mph - N/A   Clear
2:35 PM 75.2 °F 55.4 °F 50% 29.80 in 10.0 mi WSW 10.4 mph - N/A   Clear
2:55 PM 75.2 °F 53.6 °F 47% 29.79 in 10.0 mi SW 12.7 mph - N/A   Clear
3:15 PM 77.0 °F 53.6 °F 44% 29.79 in 10.0 mi SW 13.8 mph 19.6 mph N/A   Clear
3:35 PM 77.0 °F 53.6 °F 44% 29.79 in 10.0 mi SW 11.5 mph 20.7 mph N/A   Clear
3:55 PM 77.0 °F 51.8 °F 41% 29.79 in 10.0 mi SSW 12.7 mph - N/A   Clear
4:15 PM 77.0 °F 51.8 °F 41% 29.80 in 10.0 mi SW 11.5 mph - N/A   Clear
4:35 PM 78.8 °F 51.8 °F 39% 29.80 in 10.0 mi West 12.7 mph - N/A   Clear
4:55 PM 77.0 °F 51.8 °F 41% 29.80 in 10.0 mi SW 13.8 mph - N/A   Clear
5:15 PM 78.8 °F 51.8 °F 39% 29.81 in 10.0 mi West 8.1 mph - N/A   Clear
5:35 PM 77.0 °F 51.8 °F 41% 29.81 in 10.0 mi SW 10.4 mph - N/A   Clear
5:55 PM 77.0 °F 50.0 °F 39% 29.81 in 10.0 mi SW 9.2 mph - N/A   Clear
6:15 PM 77.0 °F 50.0 °F 39% 29.82 in 10.0 mi WSW 8.1 mph - N/A   Clear
6:35 PM 75.2 °F 50.0 °F 41% 29.83 in 10.0 mi WSW 5.8 mph - N/A   Clear
6:55 PM 73.4 °F 44.6 °F 36% 29.83 in 10.0 mi West 3.5 mph - N/A   Clear
7:15 PM 73.4 °F 44.6 °F 36% 29.84 in 10.0 mi Calm Calm - N/A   Clear
7:35 PM 71.6 °F 42.8 °F 35% 29.84 in 10.0 mi Calm Calm - N/A   Clear
7:55 PM 73.4 °F 41.0 °F 31% 29.85 in 10.0 mi WSW 3.5 mph - N/A   Clear
8:15 PM 68.0 °F 42.8 °F 40% 29.86 in 10.0 mi NNW 5.8 mph 12.7 mph N/A   Partly Cloudy
8:35 PM 66.2 °F 41.0 °F 40% 29.87 in 10.0 mi North 8.1 mph - N/A   Partly Cloudy
8:55 PM 66.2 °F 41.0 °F 40% 29.87 in 10.0 mi North 6.9 mph - N/A   Clear
9:15 PM 66.2 °F 39.2 °F 37% 29.88 in 10.0 mi North 6.9 mph - N/A   Partly Cloudy
9:35 PM 64.4 °F 41.0 °F 42% 29.89 in 10.0 mi North 6.9 mph - N/A   Partly Cloudy
9:55 PM 64.4 °F 39.2 °F 40% 29.89 in 10.0 mi North 8.1 mph - N/A   Partly Cloudy
10:15 PM 62.6 °F 39.2 °F 42% 29.90 in 10.0 mi North 8.1 mph - N/A   Partly Cloudy
10:35 PM 62.6 °F 41.0 °F 45% 29.91 in 10.0 mi North 8.1 mph - N/A   Partly Cloudy
10:55 PM 60.8 °F 41.0 °F 48% 29.91 in 10.0 mi North 6.9 mph - N/A   Clear
11:15 PM 60.8 °F 39.2 °F 45% 29.91 in 10.0 mi North 8.1 mph - N/A   Clear
11:35 PM 59.0 °F 41.0 °F 51% 29.92 in 10.0 mi North 4.6 mph - N/A   Clear
11:55 PM 59.0 °F 39.2 °F 48% 29.92 in 10.0 mi North 5.8 mph - N/A   Clear